Time;durP1;ratioP1;P1;durP2;ratioP2;P2;SDS_P1;SDS_P2;PMS_P1;PMS_P2;Temp;Humidity;BMP_temperature;BMP_pressure;BME280_temperature;BME280_humidity;BME280_pressure;Samples;Min_cycle;Max_cycle;Signal;HPM_P1;HPM_P2
2023/04/05 00:01:30;;;;;;;0.20;0.20;;;;;;;;;;5066892;28;20302;-69
2023/04/05 00:03:57;;;;;;;0.33;0.33;;;;;;;;;;5071894;28;20208;-69
2023/04/05 00:06:25;;;;;;;0.20;0.20;;;;;;;;;;5066233;28;20320;-69
2023/04/05 00:08:54;;;;;;;0.20;0.20;;;;;;;;;;5072451;28;20406;-69
2023/04/05 00:11:22;;;;;;;0.20;0.20;;;;;;;;;;5065786;28;20236;-69
2023/04/05 00:13:49;;;;;;;0.20;0.20;;;;;;;;;;5072919;28;20229;-69
2023/04/05 00:16:15;;;;;;;0.20;0.20;;;;;;;;;;5065293;28;20480;-69
2023/04/05 00:18:48;;;;;;;5.07;4.83;;;;;;;;;;5073424;28;20237;-69
2023/04/05 00:21:15;;;;;;;0.20;0.20;;;;;;;;;;5064894;28;20284;-69
2023/04/05 00:23:43;;;;;;;0.20;0.20;;;;;;;;;;5073200;28;20238;-69
2023/04/05 00:26:10;;;;;;;0.20;0.20;;;;;;;;;;5064400;28;20237;-69
2023/04/05 00:28:38;;;;;;;0.20;0.20;;;;;;;;;;5073953;28;20241;-69
2023/04/05 00:31:04;;;;;;;0.40;0.40;;;;;;;;;;5063470;28;20253;-69
2023/04/05 00:33:33;;;;;;;0.20;0.20;;;;;;;;;;5074568;28;20207;-69
2023/04/05 00:36:08;;;;;;;0.20;0.20;;;;;;;;;;5062625;28;20245;-69
2023/04/05 00:38:34;;;;;;;0.20;0.20;;;;;;;;;;5074029;28;20232;-69
2023/04/05 00:41:00;;;;;;;0.20;0.20;;;;;;;;;;5062629;28;20248;-69
2023/04/05 00:43:27;;;;;;;0.20;0.20;;;;;;;;;;5075177;28;20235;-69
2023/04/05 00:45:55;;;;;;;0.20;0.20;;;;;;;;;;5061808;28;20246;-69
2023/04/05 00:48:21;;;;;;;0.20;0.20;;;;;;;;;;5075588;28;20210;-69
2023/04/05 00:50:48;;;;;;;0.20;0.20;;;;;;;;;;5060908;28;20299;-69
2023/04/05 00:53:15;;;;;;;0.20;0.20;;;;;;;;;;5076342;28;20235;-69
2023/04/05 00:55:41;;;;;;;0.20;0.20;;;;;;;;;;5059960;28;20292;-69
2023/04/05 00:58:09;;;;;;;0.20;0.20;;;;;;;;;;5077151;28;20210;-69
2023/04/05 01:00:37;;;;;;;0.23;0.23;;;;;;;;;;5059344;28;20565;-69
2023/04/05 01:03:08;;;;;;;0.20;0.20;;;;;;;;;;5077549;28;20530;-69
2023/04/05 01:05:37;;;;;;;0.20;0.20;;;;;;;;;;5059002;28;20561;-69
2023/04/05 01:08:09;;;;;;;0.20;0.20;;;;;;;;;;5077466;28;20545;-69
2023/04/05 01:10:38;;;;;;;0.20;0.20;;;;;;;;;;5059046;28;20245;-69
2023/04/05 01:13:05;;;;;;;0.20;0.20;;;;;;;;;;5077297;28;20203;-69
2023/04/05 01:15:32;;;;;;;0.20;0.20;;;;;;;;;;5058629;28;20307;-68
2023/04/05 01:18:01;;;;;;;0.20;0.20;;;;;;;;;;5077922;28;20210;-69
2023/04/05 01:20:32;;;;;;;0.20;0.20;;;;;;;;;;5057893;28;20243;-69
2023/04/05 01:23:08;;;;;;;0.20;0.20;;;;;;;;;;5077795;28;20234;-69
2023/04/05 01:25:45;;;;;;;0.20;0.20;;;;;;;;;;5058918;28;20245;-69
2023/04/05 01:28:37;;;;;;;0.20;0.20;;;;;;;;;;5075938;28;20217;-70
2023/04/05 01:31:07;;;;;;;0.20;0.20;;;;;;;;;;5062246;28;20307;-69
2023/04/05 01:33:35;;;;;;;0.20;0.20;;;;;;;;;;5073250;28;20252;-69
2023/04/05 01:36:04;;;;;;;0.20;0.20;;;;;;;;;;5062081;28;20272;-69
2023/04/05 01:38:31;;;;;;;0.20;0.20;;;;;;;;;;5073364;28;20390;-69
2023/04/05 01:40:58;;;;;;;0.20;0.20;;;;;;;;;;5061470;28;20243;-69
2023/04/05 01:43:24;;;;;;;0.20;0.20;;;;;;;;;;5073968;28;20297;-69
2023/04/05 01:45:51;;;;;;;0.20;0.20;;;;;;;;;;5060364;28;20242;-69
2023/04/05 01:48:18;;;;;;;0.20;0.20;;;;;;;;;;5074942;28;20274;-69
2023/04/05 01:50:45;;;;;;;0.20;0.20;;;;;;;;;;5058499;28;20314;-69
2023/04/05 01:53:11;;;;;;;0.20;0.20;;;;;;;;;;5076036;28;20432;-69
2023/04/05 01:55:37;;;;;;;0.20;0.20;;;;;;;;;;5058222;28;20267;-69
2023/04/05 01:58:04;;;;;;;0.20;0.20;;;;;;;;;;5076868;28;20278;-69
2023/04/05 02:00:33;;;;;;;0.20;0.20;;;;;;;;;;5057625;28;20242;-69
2023/04/05 02:02:59;;;;;;;0.20;0.20;;;;;;;;;;5076578;28;20293;-69
2023/04/05 02:05:27;;;;;;;0.20;0.20;;;;;;;;;;5056648;28;20278;-69
2023/04/05 02:07:54;;;;;;;0.20;0.20;;;;;;;;;;5077821;28;20451;-70
2023/04/05 02:10:20;;;;;;;0.20;0.20;;;;;;;;;;5055905;28;20213;-70
2023/04/05 02:12:47;;;;;;;0.20;0.20;;;;;;;;;;5078308;28;20278;-69
2023/04/05 02:15:13;;;;;;;0.20;0.20;;;;;;;;;;5055131;28;20207;-68
2023/04/05 02:17:44;;;;;;;0.20;0.20;;;;;;;;;;5079226;28;20237;-69
2023/04/05 02:20:11;;;;;;;0.40;0.40;;;;;;;;;;5054763;28;20194;-68
2023/04/05 02:22:39;;;;;;;0.23;0.23;;;;;;;;;;5079331;28;20228;-69
2023/04/05 02:25:07;;;;;;;0.20;0.20;;;;;;;;;;5064480;28;20213;-69
2023/04/05 02:27:33;;;;;;;0.20;0.20;;;;;;;;;;5052798;28;20454;-69
2023/04/05 02:30:00;;;;;;;0.20;0.20;;;;;;;;;;5064438;28;20273;-69
2023/04/05 02:32:26;;;;;;;0.20;0.20;;;;;;;;;;5069478;28;20276;-69
2023/04/05 02:34:53;;;;;;;0.20;0.20;;;;;;;;;;5064357;28;20237;-69
2023/04/05 02:37:20;;;;;;;0.20;0.20;;;;;;;;;;5069299;28;20521;-69
2023/04/05 02:39:50;;;;;;;0.20;0.20;;;;;;;;;;5063964;28;20213;-69
2023/04/05 02:42:17;;;;;;;0.20;0.20;;;;;;;;;;5069189;28;20238;-70
2023/04/05 02:44:43;;;;;;;0.20;0.20;;;;;;;;;;5064002;28;20263;-69
2023/04/05 02:47:09;;;;;;;0.20;0.20;;;;;;;;;;5069300;28;20321;-69
2023/04/05 02:49:36;;;;;;;0.20;0.20;;;;;;;;;;5064079;28;20277;-69
2023/04/05 02:52:02;;;;;;;0.20;0.20;;;;;;;;;;5068285;28;20245;-69
2023/04/05 02:54:28;;;;;;;0.20;0.20;;;;;;;;;;5064265;28;20273;-69
2023/04/05 02:56:56;;;;;;;0.20;0.20;;;;;;;;;;5067336;28;20257;-69
2023/04/05 02:59:23;;;;;;;0.20;0.20;;;;;;;;;;5065330;28;20205;-70
2023/04/05 03:01:49;;;;;;;0.20;0.20;;;;;;;;;;5066221;28;20440;-70
2023/04/05 03:04:18;;;;;;;0.20;0.20;;;;;;;;;;5065738;28;20374;-70
2023/04/05 03:06:48;;;;;;;0.20;0.20;;;;;;;;;;5065772;28;20480;-70
2023/04/05 03:09:14;;;;;;;0.20;0.20;;;;;;;;;;5066191;28;20238;-70
2023/04/05 03:11:41;;;;;;;0.20;0.20;;;;;;;;;;5065443;28;20473;-69
2023/04/05 03:14:11;;;;;;;0.20;0.20;;;;;;;;;;5067061;28;20207;-70
2023/04/05 03:16:38;;;;;;;0.20;0.20;;;;;;;;;;5064713;28;20242;-70
2023/04/05 03:19:05;;;;;;;0.20;0.20;;;;;;;;;;5067307;28;20273;-70
2023/04/05 03:21:34;;;;;;;0.20;0.20;;;;;;;;;;5063630;28;20477;-69
2023/04/05 03:24:01;;;;;;;0.20;0.20;;;;;;;;;;5067897;28;20302;-69
2023/04/05 03:26:28;;;;;;;0.20;0.20;;;;;;;;;;5063438;28;20246;-69
2023/04/05 03:28:54;;;;;;;0.20;0.20;;;;;;;;;;5068251;28;20238;-70
2023/04/05 03:31:22;;;;;;;0.20;0.20;;;;;;;;;;5062506;28;20272;-69
2023/04/05 03:33:53;;;;;;;0.20;0.20;;;;;;;;;;5069507;28;20203;-70
2023/04/05 03:36:20;;;;;;;0.23;0.23;;;;;;;;;;5062318;28;20245;-69
2023/04/05 03:38:47;;;;;;;0.20;0.20;;;;;;;;;;5069375;28;20245;-69
2023/04/05 03:41:13;;;;;;;0.20;0.20;;;;;;;;;;5061613;28;20499;-70
2023/04/05 03:43:40;;;;;;;0.20;0.20;;;;;;;;;;5070318;28;20423;-69
2023/04/05 03:46:06;;;;;;;0.20;0.20;;;;;;;;;;5060544;28;20249;-68
2023/04/05 03:48:34;;;;;;;0.20;0.20;;;;;;;;;;5071360;28;20294;-70
2023/04/05 03:51:00;;;;;;;0.20;0.20;;;;;;;;;;5059465;28;20607;-69
2023/04/05 03:53:28;;;;;;;0.20;0.20;;;;;;;;;;5072533;28;20451;-70
2023/04/05 03:55:54;;;;;;;0.20;0.20;;;;;;;;;;5058727;28;20242;-69
2023/04/05 03:58:21;;;;;;;0.20;0.20;;;;;;;;;;5073052;28;20239;-69
2023/04/05 04:00:47;;;;;;;0.20;0.20;;;;;;;;;;5056423;28;20310;-70
2023/04/05 04:03:14;;;;;;;0.20;0.20;;;;;;;;;;5074730;28;20264;-70
2023/04/05 04:05:41;;;;;;;0.20;0.20;;;;;;;;;;5056037;28;20313;-69
2023/04/05 04:08:08;;;;;;;0.20;0.20;;;;;;;;;;5075196;28;20217;-69
2023/04/05 04:10:35;;;;;;;0.20;0.20;;;;;;;;;;5055932;28;20250;-69
2023/04/05 04:13:01;;;;;;;0.20;0.20;;;;;;;;;;5075173;28;20199;-70
2023/04/05 04:15:28;;;;;;;0.20;0.20;;;;;;;;;;5058152;28;20272;-69
2023/04/05 04:17:54;;;;;;;0.20;0.20;;;;;;;;;;5079823;28;20280;-70
2023/04/05 04:20:21;;;;;;;0.20;0.20;;;;;;;;;;5057538;28;20273;-69
2023/04/05 04:22:48;;;;;;;0.20;0.20;;;;;;;;;;5080728;28;20238;-69
2023/04/05 04:25:17;;;;;;;0.20;0.20;;;;;;;;;;5056741;28;20206;-69
2023/04/05 04:27:45;;;;;;;0.20;0.20;;;;;;;;;;5081476;28;20211;-69
2023/04/05 04:30:12;;;;;;;0.20;0.20;;;;;;;;;;5066862;28;20235;-70
2023/04/05 04:32:51;;;;;;;0.20;0.20;;;;;;;;;;5055639;28;20247;-69
2023/04/05 04:35:19;;;;;;;0.20;0.20;;;;;;;;;;5056993;28;20267;-69
2023/04/05 04:37:46;;;;;;;0.20;0.20;;;;;;;;;;5080997;28;20398;-69
2023/04/05 04:40:17;;;;;;;0.20;0.20;;;;;;;;;;5057971;28;20396;-68
2023/04/05 04:42:45;;;;;;;0.20;0.20;;;;;;;;;;5080793;28;20237;-69
2023/04/05 04:45:12;;;;;;;0.20;0.20;;;;;;;;;;5066167;28;20214;-69
2023/04/05 04:47:39;;;;;;;0.20;0.20;;;;;;;;;;5055109;28;20210;-68
2023/04/05 04:50:06;;;;;;;0.20;0.20;;;;;;;;;;5066371;28;20205;-69
2023/04/05 04:52:33;;;;;;;0.20;0.20;;;;;;;;;;5071705;28;20261;-69
2023/04/05 04:55:01;;;;;;;0.20;0.20;;;;;;;;;;5066601;28;20213;-69
2023/04/05 04:57:29;;;;;;;0.20;0.20;;;;;;;;;;5071460;28;20826;-69
2023/04/05 04:59:55;;;;;;;0.20;0.20;;;;;;;;;;5065877;28;20205;-69
2023/04/05 05:02:26;;;;;;;0.20;0.20;;;;;;;;;;5071918;28;20489;-68
2023/04/05 05:04:53;;;;;;;0.20;0.20;;;;;;;;;;5066447;28;20194;-69
2023/04/05 05:07:19;;;;;;;0.20;0.20;;;;;;;;;;5071663;28;20570;-69
2023/04/05 05:09:46;;;;;;;0.20;0.20;;;;;;;;;;5065924;28;20202;-70
2023/04/05 05:12:12;;;;;;;0.20;0.20;;;;;;;;;;5071293;28;20249;-69
2023/04/05 05:14:40;;;;;;;0.20;0.20;;;;;;;;;;5066096;28;20207;-69
2023/04/05 05:17:07;;;;;;;0.20;0.20;;;;;;;;;;5070410;28;20245;-70
2023/04/05 05:19:34;;;;;;;0.20;0.20;;;;;;;;;;5066412;28;20378;-69
2023/04/05 05:22:00;;;;;;;0.20;0.20;;;;;;;;;;5069220;28;20262;-69
2023/04/05 05:24:27;;;;;;;0.20;0.20;;;;;;;;;;5067316;28;20257;-70
2023/04/05 05:26:53;;;;;;;0.30;0.30;;;;;;;;;;5067205;28;20242;-69
2023/04/05 05:29:19;;;;;;;0.20;0.20;;;;;;;;;;5067760;28;20280;-69
2023/04/05 05:31:47;;;;;;;0.20;0.20;;;;;;;;;;5067947;28;20241;-69
2023/04/05 05:34:14;;;;;;;0.20;0.20;;;;;;;;;;5068170;28;20273;-70
2023/04/05 05:36:41;;;;;;;0.20;0.20;;;;;;;;;;5067808;28;20301;-69
2023/04/05 05:39:07;;;;;;;0.20;0.20;;;;;;;;;;5068852;28;20206;-69
2023/04/05 05:41:34;;;;;;;0.20;0.20;;;;;;;;;;5066107;28;20447;-69
2023/04/05 05:44:00;;;;;;;0.20;0.20;;;;;;;;;;5069308;28;20275;-69
2023/04/05 05:46:27;;;;;;;0.20;0.20;;;;;;;;;;5065695;28;20570;-69
2023/04/05 05:48:54;;;;;;;0.20;0.20;;;;;;;;;;5070507;28;20206;-70
2023/04/05 05:51:21;;;;;;;0.20;0.20;;;;;;;;;;5064245;28;20305;-68
2023/04/05 05:53:47;;;;;;;0.20;0.20;;;;;;;;;;5070868;28;20271;-70
2023/04/05 05:56:14;;;;;;;0.20;0.20;;;;;;;;;;5063216;28;20280;-70
2023/04/05 05:58:40;;;;;;;0.20;0.20;;;;;;;;;;5071807;28;20257;-70
2023/04/05 06:01:07;;;;;;;0.20;0.20;;;;;;;;;;5062386;28;20240;-69
2023/04/05 06:03:34;;;;;;;0.20;0.20;;;;;;;;;;5072762;28;20230;-69
2023/04/05 06:06:04;;;;;;;0.23;0.23;;;;;;;;;;5061349;28;20258;-69
2023/04/05 06:08:31;;;;;;;0.20;0.20;;;;;;;;;;5073240;28;20396;-69
2023/04/05 06:10:58;;;;;;;0.20;0.20;;;;;;;;;;5061062;28;20305;-70
2023/04/05 06:13:24;;;;;;;0.20;0.20;;;;;;;;;;5073586;28;20235;-70
2023/04/05 06:15:51;;;;;;;0.20;0.20;;;;;;;;;;5059839;28;20309;-70
2023/04/05 06:18:18;;;;;;;0.20;0.20;;;;;;;;;;5074272;28;20205;-71
2023/04/05 06:20:44;;;;;;;0.20;0.20;;;;;;;;;;5058821;28;20242;-71
2023/04/05 06:23:12;;;;;;;0.23;0.23;;;;;;;;;;5074875;28;20237;-71
2023/04/05 06:25:38;;;;;;;0.20;0.20;;;;;;;;;;5058242;28;20404;-71
2023/04/05 06:28:05;;;;;;;0.20;0.20;;;;;;;;;;5075696;28;20204;-71
2023/04/05 06:30:32;;;;;;;0.20;0.20;;;;;;;;;;5056939;28;20241;-70
2023/04/05 06:32:59;;;;;;;0.20;0.20;;;;;;;;;;5076174;28;20203;-71
2023/04/05 06:35:25;;;;;;;0.20;0.20;;;;;;;;;;5056447;28;20334;-70
2023/04/05 06:37:52;;;;;;;0.20;0.20;;;;;;;;;;5076990;28;20214;-71
2023/04/05 06:40:20;;;;;;;0.20;0.20;;;;;;;;;;5055072;28;20266;-70
2023/04/05 06:42:46;;;;;;;0.20;0.20;;;;;;;;;;5078005;28;20249;-70
2023/04/05 06:45:12;;;;;;;0.20;0.20;;;;;;;;;;5054102;28;20275;-70
2023/04/05 06:47:39;;;;;;;0.20;0.20;;;;;;;;;;5078795;28;20278;-70
2023/04/05 06:50:07;;;;;;;0.20;0.20;;;;;;;;;;5063704;28;20253;-70
2023/04/05 06:52:34;;;;;;;0.20;0.20;;;;;;;;;;5052539;28;20556;-70
2023/04/05 06:55:00;;;;;;;0.20;0.20;;;;;;;;;;5064077;28;20200;-71
2023/04/05 06:57:28;;;;;;;0.20;0.20;;;;;;;;;;5069082;28;20262;-70
2023/04/05 06:59:55;;;;;;;0.20;0.20;;;;;;;;;;5064244;28;20246;-70
2023/04/05 07:02:22;;;;;;;0.20;0.20;;;;;;;;;;5069082;28;20235;-71
2023/04/05 07:04:48;;;;;;;0.20;0.20;;;;;;;;;;5067644;28;20302;-70
2023/04/05 07:07:16;;;;;;;0.20;0.20;;;;;;;;;;5069020;28;20273;-71
2023/04/05 07:09:42;;;;;;;0.20;0.20;;;;;;;;;;5064100;28;20503;-70
2023/04/05 07:12:09;;;;;;;0.20;0.20;;;;;;;;;;5068983;28;20242;-70
2023/04/05 07:14:37;;;;;;;0.20;0.20;;;;;;;;;;5063820;28;20266;-70
2023/04/05 07:17:04;;;;;;;0.20;0.20;;;;;;;;;;5068568;28;20314;-71
2023/04/05 07:19:31;;;;;;;0.20;0.20;;;;;;;;;;5063820;28;20207;-70
2023/04/05 07:21:58;;;;;;;0.20;0.20;;;;;;;;;;5067767;28;20485;-70
2023/04/05 07:24:25;;;;;;;0.20;0.20;;;;;;;;;;5065851;28;20451;-70
2023/04/05 07:26:51;;;;;;;0.10;0.10;;;;;;;;;;5066569;28;20239;-70
2023/04/05 07:29:18;;;;;;;0.20;0.20;;;;;;;;;;5065624;28;20557;-71
2023/04/05 07:31:45;;;;;;;0.20;0.20;;;;;;;;;;5065697;28;20255;-70
2023/04/05 07:34:13;;;;;;;0.20;0.20;;;;;;;;;;5066401;28;20222;-70
2023/04/05 07:36:39;;;;;;;0.10;0.10;;;;;;;;;;5064847;28;20258;-71
2023/04/05 07:39:06;;;;;;;0.20;0.20;;;;;;;;;;5067110;28;20243;-70
2023/04/05 07:41:34;;;;;;;0.10;0.10;;;;;;;;;;5064056;28;20310;-71
2023/04/05 07:44:00;;;;;;;0.20;0.20;;;;;;;;;;5068294;28;20547;-71
2023/04/05 07:46:27;;;;;;;0.20;0.20;;;;;;;;;;5063603;28;20272;-73
2023/04/05 07:48:57;;;;;;;0.10;0.10;;;;;;;;;;5078925;28;20211;-63
2023/04/05 07:51:23;;;;;;;0.10;0.10;;;;;;;;;;5067225;28;20257;-64
2023/04/05 07:53:49;;;;;;;0.20;0.20;;;;;;;;;;5073240;28;20206;-63
2023/04/05 07:56:16;;;;;;;0.20;0.20;;;;;;;;;;5065555;28;20246;-64
2023/04/05 07:58:42;;;;;;;0.20;0.20;;;;;;;;;;5073896;28;20605;-64
2023/04/05 08:01:09;;;;;;;0.20;0.20;;;;;;;;;;5064880;28;20262;-64
2023/04/05 08:03:38;;;;;;;0.20;0.20;;;;;;;;;;5074655;28;20410;-64
2023/04/05 08:06:13;;;;;;;0.30;0.30;;;;;;;;;;5064266;28;20246;-64
2023/04/05 08:08:40;;;;;;;0.60;0.60;;;;;;;;;;5073734;28;20508;-64
2023/04/05 08:11:06;;;;;;;0.10;0.10;;;;;;;;;;5064171;28;20262;-64
2023/04/05 08:13:33;;;;;;;0.13;0.13;;;;;;;;;;5074890;28;20231;-64
2023/04/05 08:16:00;;;;;;;0.10;0.10;;;;;;;;;;5063575;28;20503;-64
2023/04/05 08:18:27;;;;;;;0.20;0.20;;;;;;;;;;5075308;28;20271;-64
2023/04/05 08:20:54;;;;;;;0.20;0.20;;;;;;;;;;5062586;28;20243;-64
2023/04/05 08:23:21;;;;;;;0.20;0.20;;;;;;;;;;5076299;28;20496;-64
2023/04/05 08:25:48;;;;;;;0.20;0.20;;;;;;;;;;5061601;28;20246;-64
2023/04/05 08:28:14;;;;;;;0.23;0.23;;;;;;;;;;5076924;28;20275;-64
2023/04/05 08:30:41;;;;;;;0.20;0.20;;;;;;;;;;5060841;28;20522;-64
2023/04/05 08:33:07;;;;;;;0.20;0.20;;;;;;;;;;5078015;28;20282;-64
2023/04/05 08:35:36;;;;;;;0.10;0.10;;;;;;;;;;5059516;28;20297;-64
2023/04/05 08:38:02;;;;;;;0.10;0.10;;;;;;;;;;5078553;28;20272;-64
2023/04/05 08:40:33;;;;;;;0.10;0.10;;;;;;;;;;5059218;28;20240;-64
2023/04/05 08:43:04;;;;;;;0.10;0.10;;;;;;;;;;5078612;28;20208;-64
2023/04/05 08:45:32;;;;;;;0.10;0.10;;;;;;;;;;5058590;28;20245;-64
2023/04/05 08:47:58;;;;;;;0.20;0.20;;;;;;;;;;5078634;28;20262;-64
2023/04/05 08:50:26;;;;;;;0.10;0.10;;;;;;;;;;5058257;28;20205;-64
2023/04/05 08:52:52;;;;;;;0.10;0.10;;;;;;;;;;5079651;28;20256;-64
2023/04/05 08:55:19;;;;;;;0.13;0.13;;;;;;;;;;5057393;28;20201;-64
2023/04/05 08:57:50;;;;;;;0.10;0.10;;;;;;;;;;5080143;28;20226;-64
2023/04/05 09:00:16;;;;;;;0.10;0.10;;;;;;;;;;5055793;28;20396;-64
2023/04/05 09:02:43;;;;;;;0.10;0.10;;;;;;;;;;5080344;28;20276;-64
2023/04/05 09:05:10;;;;;;;0.10;0.10;;;;;;;;;;5056732;28;20248;-62
2023/04/05 09:07:38;;;;;;;0.10;0.10;;;;;;;;;;5081150;28;20218;-63
2023/04/05 09:10:06;;;;;;;0.10;0.10;;;;;;;;;;5065710;28;20259;-62
2023/04/05 09:12:32;;;;;;;0.10;0.10;;;;;;;;;;5071157;28;20262;-62
2023/04/05 09:15:00;;;;;;;0.10;0.10;;;;;;;;;;5065688;28;20568;-62
2023/04/05 09:17:28;;;;;;;0.10;0.10;;;;;;;;;;5077568;28;20281;-72
2023/04/05 09:19:54;;;;;;;0.10;0.10;;;;;;;;;;5065901;28;20280;-72
2023/04/05 09:22:22;;;;;;;0.10;0.10;;;;;;;;;;5070975;28;20239;-72
2023/04/05 09:24:49;;;;;;;0.10;0.10;;;;;;;;;;5065841;28;20299;-72
2023/04/05 09:27:15;;;;;;;0.10;0.10;;;;;;;;;;5070834;28;20266;-72
2023/04/05 09:29:42;;;;;;;0.10;0.10;;;;;;;;;;5065425;28;20235;-72
2023/04/05 09:32:11;;;;;;;0.10;0.10;;;;;;;;;;5070711;28;20302;-71
2023/04/05 09:34:38;;;;;;;0.10;0.10;;;;;;;;;;5065379;28;20201;-71
2023/04/05 09:37:12;;;;;;;0.10;0.10;;;;;;;;;;5070261;28;20316;-72
2023/04/05 09:39:38;;;;;;;0.10;0.10;;;;;;;;;;5065229;28;20552;-72
2023/04/05 09:42:06;;;;;;;0.10;0.10;;;;;;;;;;5070172;28;20304;-72
2023/04/05 09:44:54;;;;;;;0.10;0.10;;;;;;;;;;5065075;28;20231;-71
2023/04/05 09:47:23;;;;;;;0.10;0.10;;;;;;;;;;5066970;28;20240;-72
2023/04/05 09:49:50;;;;;;;0.20;0.20;;;;;;;;;;5065001;28;20211;-72
2023/04/05 09:52:20;;;;;;;0.10;0.10;;;;;;;;;;5070385;28;20300;-72
2023/04/05 09:54:48;;;;;;;0.10;0.10;;;;;;;;;;5065284;28;20204;-72
2023/04/05 09:57:15;;;;;;;0.03;0.03;;;;;;;;;;5070132;28;20247;-72
2023/04/05 09:59:41;;;;;;;0.10;0.10;;;;;;;;;;5065205;28;20211;-72
2023/04/05 10:02:10;;;;;;;0.10;0.10;;;;;;;;;;5070207;28;20308;-71
2023/04/05 10:04:41;;;;;;;0.10;0.10;;;;;;;;;;5065064;28;20228;-72
2023/04/05 10:07:09;;;;;;;0.10;0.10;;;;;;;;;;5070027;28;20439;-72
2023/04/05 10:09:35;;;;;;;0.10;0.10;;;;;;;;;;5064540;28;20206;-72
2023/04/05 10:12:02;;;;;;;0.10;0.10;;;;;;;;;;5068851;28;20257;-72
2023/04/05 10:14:28;;;;;;;0.10;0.10;;;;;;;;;;5065262;28;20201;-72
2023/04/05 10:16:59;;;;;;;0.10;0.10;;;;;;;;;;5068382;28;20247;-72
2023/04/05 10:19:27;;;;;;;0.10;0.10;;;;;;;;;;5066206;28;20208;-71
2023/04/05 10:22:00;;;;;;;0.10;0.10;;;;;;;;;;5068318;28;20316;-72
2023/04/05 10:24:31;;;;;;;0.10;0.10;;;;;;;;;;5065682;28;20548;-62
2023/04/05 10:27:04;;;;;;;0.10;0.10;;;;;;;;;;5067553;28;20274;-67
2023/04/05 10:29:34;;;;;;;0.20;0.20;;;;;;;;;;5064578;28;20193;-63
2023/04/05 10:32:04;;;;;;;0.10;0.10;;;;;;;;;;5068587;28;20241;-63
2023/04/05 10:34:33;;;;;;;0.10;0.10;;;;;;;;;;5065416;28;20229;-64
2023/04/05 10:37:01;;;;;;;0.10;0.10;;;;;;;;;;5068294;28;20258;-64
2023/04/05 10:39:28;;;;;;;0.10;0.10;;;;;;;;;;5064875;28;20213;-64
2023/04/05 10:41:56;;;;;;;0.10;0.10;;;;;;;;;;5067672;28;20548;-65
2023/04/05 10:44:23;;;;;;;0.10;0.10;;;;;;;;;;5064962;28;20225;-65
2023/04/05 10:46:50;;;;;;;0.10;0.10;;;;;;;;;;5066790;28;20249;-65
2023/04/05 10:49:22;;;;;;;0.10;0.10;;;;;;;;;;5066217;28;20439;-63
2023/04/05 10:51:50;;;;;;;0.13;0.13;;;;;;;;;;5066814;28;20241;-63
2023/04/05 10:54:18;;;;;;;0.10;0.10;;;;;;;;;;5066102;28;20449;-63
2023/04/05 10:56:45;;;;;;;0.10;0.10;;;;;;;;;;5066106;28;20271;-63
2023/04/05 10:59:11;;;;;;;0.10;0.10;;;;;;;;;;5066652;28;20240;-63
2023/04/05 11:01:39;;;;;;;0.10;0.10;;;;;;;;;;5065077;28;20270;-63
2023/04/05 11:04:15;;;;;;;0.10;0.10;;;;;;;;;;5067548;28;20240;-63
2023/04/05 11:06:42;;;;;;;0.10;0.10;;;;;;;;;;5065423;28;20242;-63
2023/04/05 11:09:10;;;;;;;0.10;0.10;;;;;;;;;;5066997;28;20429;-63
2023/04/05 11:11:40;;;;;;;0.10;0.10;;;;;;;;;;5064871;28;20302;-71
2023/04/05 11:14:17;;;;;;;0.10;0.10;;;;;;;;;;5066942;28;20206;-64
2023/04/05 11:16:45;;;;;;;0.10;0.10;;;;;;;;;;5065883;28;20259;-62
2023/04/05 11:19:12;;;;;;;0.10;0.10;;;;;;;;;;5066316;28;20271;-62
2023/04/05 11:21:38;;;;;;;0.10;0.10;;;;;;;;;;5065044;28;20298;-62
2023/04/05 11:24:06;;;;;;;0.10;0.10;;;;;;;;;;5066292;28;20236;-62
2023/04/05 11:26:51;;;;;;;0.10;0.10;;;;;;;;;;5064134;28;20252;-62
2023/04/05 11:29:19;;;;;;;0.10;0.10;;;;;;;;;;5065677;28;20433;-62
2023/04/05 11:31:58;;;;;;;0.10;0.10;;;;;;;;;;5065786;28;20300;-64
2023/04/05 11:34:24;;;;;;;0.10;0.10;;;;;;;;;;5064620;28;20422;-65
2023/04/05 11:36:51;;;;;;;0.10;0.10;;;;;;;;;;5066573;28;20289;-63
2023/04/05 11:39:27;;;;;;;0.10;0.10;;;;;;;;;;5065502;28;20233;-63
2023/04/05 11:41:54;;;;;;;0.10;0.10;;;;;;;;;;5066750;28;20625;-64
2023/04/05 11:44:22;;;;;;;0.10;0.10;;;;;;;;;;5064759;28;20283;-63
2023/04/05 11:46:49;;;;;;;0.10;0.10;;;;;;;;;;5066218;28;20308;-63
2023/04/05 11:49:16;;;;;;;0.10;0.10;;;;;;;;;;5065341;28;20210;-63
2023/04/05 11:51:42;;;;;;;0.10;0.10;;;;;;;;;;5065223;28;20246;-63
2023/04/05 11:54:08;;;;;;;0.10;0.10;;;;;;;;;;5066230;28;20214;-63
2023/04/05 11:56:35;;;;;;;0.10;0.10;;;;;;;;;;5064274;28;20485;-63
2023/04/05 11:59:01;;;;;;;0.10;0.10;;;;;;;;;;5067416;28;20290;-62
2023/04/05 12:01:29;;;;;;;0.10;0.10;;;;;;;;;;5063006;28;20458;-63
2023/04/05 12:03:56;;;;;;;0.10;0.10;;;;;;;;;;5068294;28;20232;-62
2023/04/05 12:06:23;;;;;;;0.10;0.10;;;;;;;;;;5062382;28;20258;-62
2023/04/05 12:08:49;;;;;;;0.43;0.43;;;;;;;;;;5068591;28;20244;-62
2023/04/05 12:11:16;;;;;;;0.10;0.10;;;;;;;;;;5061509;28;20246;-63
2023/04/05 12:13:45;;;;;;;0.10;0.10;;;;;;;;;;5069707;28;20238;-63
2023/04/05 12:16:11;;;;;;;0.10;0.10;;;;;;;;;;5061056;28;20309;-63
2023/04/05 12:18:39;;;;;;;0.10;0.10;;;;;;;;;;5069797;28;20206;-63
2023/04/05 12:21:07;;;;;;;0.10;0.10;;;;;;;;;;5060139;28;20267;-63
2023/04/05 12:23:33;;;;;;;0.10;0.10;;;;;;;;;;5070726;28;20214;-63
2023/04/05 12:25:59;;;;;;;0.10;0.10;;;;;;;;;;5059224;28;20259;-63
2023/04/05 12:28:46;;;;;;;0.10;0.10;;;;;;;;;;5071589;28;20215;-63
2023/04/05 12:31:12;;;;;;;0.10;0.10;;;;;;;;;;5060806;28;20263;-63
2023/04/05 12:33:41;;;;;;;0.10;0.10;;;;;;;;;;5069947;28;20235;-63
2023/04/05 12:36:07;;;;;;;0.10;0.10;;;;;;;;;;5062879;28;20241;-62
2023/04/05 12:38:36;;;;;;;0.10;0.10;;;;;;;;;;5074072;28;20204;-62
2023/04/05 12:41:03;;;;;;;0.10;0.10;;;;;;;;;;5063445;28;20321;-62
2023/04/05 12:43:38;;;;;;;0.10;0.10;;;;;;;;;;5074654;28;20291;-63
2023/04/05 12:46:06;;;;;;;0.10;0.10;;;;;;;;;;5062931;28;20238;-63
2023/04/05 12:48:32;;;;;;;0.10;0.10;;;;;;;;;;5074226;28;20315;-62
2023/04/05 12:51:03;;;;;;;0.10;0.10;;;;;;;;;;5062651;28;20263;-63
2023/04/05 12:53:30;;;;;;;0.10;0.10;;;;;;;;;;5074513;28;20275;-62
2023/04/05 12:55:57;;;;;;;0.20;0.20;;;;;;;;;;5062087;28;20255;-62
2023/04/05 12:58:32;;;;;;;0.10;0.10;;;;;;;;;;5075159;28;20275;-63
2023/04/05 13:00:58;;;;;;;0.10;0.10;;;;;;;;;;5062172;28;20461;-62
2023/04/05 13:03:25;;;;;;;0.10;0.10;;;;;;;;;;5075101;28;20232;-63
2023/04/05 13:05:52;;;;;;;0.10;0.10;;;;;;;;;;5061455;28;20258;-62
2023/04/05 13:08:19;;;;;;;0.10;0.10;;;;;;;;;;5075605;28;20237;-63
2023/04/05 13:10:46;;;;;;;0.10;0.10;;;;;;;;;;5060431;28;20259;-63
2023/04/05 13:13:13;;;;;;;0.10;0.10;;;;;;;;;;5076177;28;20239;-62
2023/04/05 13:15:39;;;;;;;0.10;0.10;;;;;;;;;;5059745;28;20251;-63
2023/04/05 13:18:06;;;;;;;0.10;0.10;;;;;;;;;;5077006;28;20249;-63
2023/04/05 13:20:32;;;;;;;0.10;0.10;;;;;;;;;;5058497;28;20265;-63
2023/04/05 13:22:58;;;;;;;0.10;0.10;;;;;;;;;;5078034;28;20200;-63
2023/04/05 13:25:26;;;;;;;0.10;0.10;;;;;;;;;;5057379;28;20220;-62
2023/04/05 13:27:53;;;;;;;0.10;0.10;;;;;;;;;;5078568;28;20247;-63
2023/04/05 13:30:19;;;;;;;0.10;0.10;;;;;;;;;;5056590;28;20204;-63
2023/04/05 13:32:46;;;;;;;0.10;0.10;;;;;;;;;;5079517;28;20204;-63
2023/04/05 13:35:12;;;;;;;0.10;0.10;;;;;;;;;;5055867;28;20392;-63
2023/04/05 13:37:38;;;;;;;0.10;0.10;;;;;;;;;;5080232;28;20284;-63
2023/04/05 13:40:06;;;;;;;0.10;0.10;;;;;;;;;;5065165;28;20204;-63
2023/04/05 13:42:33;;;;;;;0.10;0.10;;;;;;;;;;5053894;28;20232;-62
2023/04/05 13:45:00;;;;;;;0.10;0.10;;;;;;;;;;5064844;28;20280;-63
2023/04/05 13:47:26;;;;;;;0.10;0.10;;;;;;;;;;5069777;28;20247;-63
2023/04/05 13:49:52;;;;;;;0.10;0.10;;;;;;;;;;5065348;28;20211;-63
2023/04/05 13:52:19;;;;;;;0.10;0.10;;;;;;;;;;5070351;28;20306;-62
2023/04/05 13:54:45;;;;;;;0.10;0.10;;;;;;;;;;5065191;28;20233;-63
2023/04/05 13:57:13;;;;;;;0.10;0.10;;;;;;;;;;5069984;28;20578;-62
2023/04/05 13:59:40;;;;;;;0.10;0.10;;;;;;;;;;5064729;28;20204;-62
2023/04/05 14:02:07;;;;;;;0.10;0.10;;;;;;;;;;5070096;28;20240;-62
2023/04/05 14:04:34;;;;;;;0.10;0.10;;;;;;;;;;5064652;28;20280;-62
2023/04/05 14:07:00;;;;;;;0.10;0.10;;;;;;;;;;5068791;28;20443;-61
2023/04/05 14:09:26;;;;;;;0.10;0.10;;;;;;;;;;5065661;28;20231;-62
2023/04/05 14:11:53;;;;;;;0.10;0.10;;;;;;;;;;5067978;28;20313;-62
2023/04/05 14:14:19;;;;;;;0.10;0.10;;;;;;;;;;5066559;28;20274;-61
2023/04/05 14:16:47;;;;;;;0.10;0.10;;;;;;;;;;5066842;28;20240;-62
2023/04/05 14:19:15;;;;;;;0.10;0.10;;;;;;;;;;5067012;28;20205;-61
2023/04/05 14:21:41;;;;;;;0.10;0.10;;;;;;;;;;5066114;28;20240;-62
2023/04/05 14:24:08;;;;;;;0.10;0.10;;;;;;;;;;5067950;28;20204;-62
2023/04/05 14:26:34;;;;;;;0.10;0.10;;;;;;;;;;5065038;28;20251;-62
2023/04/05 14:29:00;;;;;;;0.10;0.10;;;;;;;;;;5068388;28;20211;-62
2023/04/05 14:31:27;;;;;;;0.10;0.10;;;;;;;;;;5064241;28;20442;-62
2023/04/05 14:33:55;;;;;;;0.10;0.10;;;;;;;;;;5069101;28;20204;-62
2023/04/05 14:36:21;;;;;;;0.10;0.10;;;;;;;;;;5063312;28;20430;-62
2023/04/05 14:38:48;;;;;;;0.10;0.10;;;;;;;;;;5069652;28;20204;-62
2023/04/05 14:41:14;;;;;;;0.10;0.10;;;;;;;;;;5062333;28;20246;-62
2023/04/05 14:43:41;;;;;;;0.10;0.10;;;;;;;;;;5070881;28;20275;-63
2023/04/05 14:46:07;;;;;;;0.10;0.10;;;;;;;;;;5061208;28;20435;-63